createdAt,value
2023-04-30T00:00:39.713Z,102018.81
2023-04-30T00:03:06.327Z,102030.50
2023-04-30T00:05:32.908Z,102024.13
2023-04-30T00:07:59.396Z,102016.38
2023-04-30T00:10:25.943Z,102028.81
2023-04-30T00:12:53.749Z,102024.59
2023-04-30T00:15:20.275Z,102019.66
2023-04-30T00:17:46.915Z,102021.69
2023-04-30T00:20:13.508Z,102022.91
2023-04-30T00:22:40.064Z,102026.66
2023-04-30T00:25:06.991Z,102022.31
2023-04-30T00:27:33.469Z,102025.91
2023-04-30T00:30:01.267Z,102029.78
2023-04-30T00:32:27.828Z,102027.38
2023-04-30T00:34:54.344Z,102035.56
2023-04-30T00:37:20.837Z,102032.28
2023-04-30T00:39:47.349Z,102031.56
2023-04-30T00:42:13.843Z,102039.13
2023-04-30T00:44:40.394Z,102036.72
2023-04-30T00:47:08.239Z,102037.72
2023-04-30T00:49:34.832Z,102044.66
2023-04-30T00:52:01.385Z,102036.47
2023-04-30T00:54:28.055Z,102038.38
2023-04-30T00:56:54.791Z,102031.66
2023-04-30T00:59:21.759Z,102031.66
2023-04-30T01:01:48.639Z,102033.56
2023-04-30T01:04:17.350Z,102027.66
2023-04-30T01:06:44.136Z,102031.63
2023-04-30T01:09:10.804Z,102024.84
2023-04-30T01:11:49.796Z,102021.72
2023-04-30T01:14:25.085Z,102024.47
2023-04-30T01:16:59.309Z,102026.50
2023-04-30T01:19:38.213Z,102023.13
2023-04-30T01:22:06.476Z,102025.19
2023-04-30T01:24:59.178Z,102023.81
2023-04-30T01:27:39.428Z,102016.72
2023-04-30T01:30:08.994Z,102018.53
2023-04-30T01:32:35.525Z,102020.53
2023-04-30T01:35:03.273Z,102021.63
2023-04-30T01:37:39.611Z,102022.72
2023-04-30T01:40:22.611Z,102015.81
2023-04-30T01:43:01.340Z,102013.66
2023-04-30T01:45:45.176Z,102010.47
2023-04-30T01:48:18.753Z,102019.97
2023-04-30T01:50:49.433Z,102015.50
2023-04-30T01:53:21.286Z,102017.41
2023-04-30T01:55:51.780Z,102005.97
2023-04-30T01:58:20.297Z,102017.53
2023-04-30T02:00:48.134Z,102015.72
2023-04-30T02:03:14.712Z,102023.16
2023-04-30T02:05:41.353Z,102018.81
2023-04-30T02:08:08.050Z,102018.81
2023-04-30T02:10:34.577Z,102025.06
2023-04-30T02:13:01.161Z,102017.22
2023-04-30T02:15:27.720Z,102023.56
2023-04-30T02:17:55.644Z,102028.13
2023-04-30T02:20:22.226Z,102032.81
2023-04-30T02:22:48.772Z,102038.13
2023-04-30T02:25:15.471Z,102034.00
2023-04-30T02:27:42.018Z,102042.88
2023-04-30T02:30:08.762Z,102041.09
2023-04-30T02:32:35.465Z,102036.34
2023-04-30T02:35:03.772Z,102044.41
2023-04-30T02:37:30.277Z,102038.47
2023-04-30T02:39:57.418Z,102038.56
2023-04-30T02:42:24.022Z,102036.03
2023-04-30T02:44:50.485Z,102038.69
2023-04-30T02:47:16.977Z,102037.22
2023-04-30T02:49:43.439Z,102034.78
2023-04-30T02:52:11.254Z,102036.69
2023-04-30T02:54:37.740Z,102030.66
2023-04-30T02:57:04.222Z,102030.81
2023-04-30T02:59:30.789Z,102036.19
2023-04-30T03:01:57.330Z,102031.84
2023-04-30T03:04:23.852Z,102025.09
2023-04-30T03:06:50.292Z,102024.13
2023-04-30T03:09:18.147Z,102025.19
2023-04-30T03:11:44.716Z,102026.13
2023-04-30T03:14:11.273Z,102030.56
2023-04-30T03:16:37.913Z,102028.28
2023-04-30T03:19:04.496Z,102031.34
2023-04-30T03:21:30.971Z,102029.44
2023-04-30T03:23:57.455Z,102019.91
2023-04-30T03:26:25.428Z,102019.19
2023-04-30T03:28:51.946Z,102013.81
2023-04-30T03:31:18.482Z,102020.06
2023-04-30T03:33:45.061Z,102019.31
2023-04-30T03:36:11.624Z,102016.13
2023-04-30T03:38:38.147Z,102017.19
2023-04-30T03:41:05.049Z,102018.88
2023-04-30T03:43:33.133Z,102012.03
2023-04-30T03:45:59.605Z,102014.88
2023-04-30T03:48:26.056Z,102017.72
2023-04-30T03:50:52.556Z,102019.72
2023-04-30T03:53:19.072Z,102013.50
2023-04-30T03:55:45.554Z,102024.19
2023-04-30T03:58:12.162Z,102021.66
2023-04-30T04:00:41.404Z,102024.50
2023-04-30T04:03:08.024Z,102025.56
2023-04-30T04:05:34.567Z,102023.13
2023-04-30T04:08:01.023Z,102028.63
2023-04-30T04:10:27.581Z,102019.97
2023-04-30T04:12:54.060Z,102024.50
2023-04-30T04:15:20.767Z,102023.53
2023-04-30T04:17:48.700Z,102032.22
2023-04-30T04:20:15.204Z,102025.03
2023-04-30T04:22:41.708Z,102028.63
2023-04-30T04:25:08.900Z,102032.84
2023-04-30T04:27:35.518Z,102041.50
2023-04-30T04:30:02.115Z,102038.03
2023-04-30T04:32:28.687Z,102033.59
2023-04-30T04:34:56.574Z,102039.81
2023-04-30T04:37:23.043Z,102051.13
2023-04-30T04:39:49.601Z,102057.81
2023-04-30T04:42:16.280Z,102045.44
2023-04-30T04:44:42.796Z,102053.13
2023-04-30T04:47:09.317Z,102059.06
2023-04-30T04:49:35.880Z,102065.09
2023-04-30T04:52:03.825Z,102065.84
2023-04-30T04:54:30.328Z,102070.28
2023-04-30T04:56:56.833Z,102072.00
2023-04-30T04:59:23.309Z,102071.88
2023-04-30T05:01:49.927Z,102070.91
2023-04-30T05:04:16.531Z,102070.91
2023-04-30T05:06:43.102Z,102067.09
2023-04-30T05:09:11.047Z,102066.16
2023-04-30T05:11:37.941Z,102067.84
2023-04-30T05:14:04.568Z,102064.25
2023-04-30T05:16:31.142Z,102071.13
2023-04-30T05:18:57.664Z,102066.56
2023-04-30T05:21:24.166Z,102061.06
2023-04-30T05:23:50.666Z,102059.28
2023-04-30T05:26:18.511Z,102067.00
2023-04-30T05:28:45.008Z,102070.16
2023-04-30T05:31:11.458Z,102061.16
2023-04-30T05:33:37.968Z,102070.25
2023-04-30T05:36:05.103Z,102075.22
2023-04-30T05:38:31.610Z,102074.78
2023-04-30T05:40:58.108Z,102077.00
2023-04-30T05:43:25.950Z,102079.28
2023-04-30T05:45:52.530Z,102080.88
2023-04-30T05:48:19.104Z,102070.19
2023-04-30T05:50:45.678Z,102067.84
2023-04-30T05:53:13.268Z,102074.59
2023-04-30T05:55:39.718Z,102076.19
2023-04-30T05:58:06.213Z,102076.63
2023-04-30T06:00:34.031Z,102070.75
2023-04-30T06:03:00.598Z,102068.75
2023-04-30T06:05:27.346Z,102069.25
2023-04-30T06:07:53.898Z,102067.09
2023-04-30T06:10:20.445Z,102067.38
2023-04-30T06:12:46.948Z,102065.25
2023-04-30T06:15:13.496Z,102071.06
2023-04-30T06:17:41.406Z,102063.97
2023-04-30T06:20:08.798Z,102070.53
2023-04-30T06:22:35.332Z,102062.94
2023-04-30T06:25:01.820Z,102058.38
2023-04-30T06:27:28.298Z,102060.69
2023-04-30T06:29:55.013Z,102050.34
2023-04-30T06:32:21.730Z,102053.34
2023-04-30T06:34:49.584Z,102059.91
2023-04-30T06:37:16.091Z,102058.34
2023-04-30T06:39:42.555Z,102069.09
2023-04-30T06:42:09.050Z,102058.81
2023-04-30T06:44:35.567Z,102061.13
2023-04-30T06:47:02.082Z,102066.78
2023-04-30T06:49:28.646Z,102066.09
2023-04-30T06:51:56.482Z,102061.97
2023-04-30T06:54:22.983Z,102071.03
2023-04-30T06:56:49.473Z,102060.78
2023-04-30T06:59:15.935Z,102067.16
2023-04-30T07:01:42.503Z,102064.50
2023-04-30T07:04:09.017Z,102066.31
2023-04-30T07:06:35.668Z,102054.09
2023-04-30T07:09:03.925Z,102049.00
2023-04-30T07:11:30.389Z,102058.84
2023-04-30T07:13:56.898Z,102058.38
2023-04-30T07:16:25.476Z,102058.47
2023-04-30T07:18:52.124Z,102058.53
2023-04-30T07:21:18.619Z,102056.91
2023-04-30T07:23:45.093Z,102055.56
2023-04-30T07:26:12.936Z,102058.44
2023-04-30T07:28:39.477Z,102051.47
2023-04-30T07:31:06.051Z,102055.22
2023-04-30T07:33:32.519Z,102045.72
2023-04-30T07:35:59.029Z,102052.19
2023-04-30T07:38:25.495Z,102053.09
2023-04-30T07:40:51.980Z,102053.13
2023-04-30T07:43:19.780Z,102053.22
2023-04-30T07:45:46.330Z,102048.91
2023-04-30T07:48:12.814Z,102053.44
2023-04-30T07:50:39.309Z,102049.13
2023-04-30T07:53:05.838Z,102050.56
2023-04-30T07:55:32.369Z,102053.94
2023-04-30T07:57:58.848Z,102053.50
2023-04-30T08:00:26.682Z,102053.13
2023-04-30T08:02:53.261Z,102055.22
2023-04-30T08:05:20.031Z,102060.16
2023-04-30T08:07:46.577Z,102062.25
2023-04-30T08:10:13.105Z,102057.97
2023-04-30T08:12:39.672Z,102057.97
2023-04-30T08:15:07.286Z,102060.19
2023-04-30T08:17:35.565Z,102059.66
2023-04-30T08:20:03.686Z,102065.13
2023-04-30T08:22:30.278Z,102063.88
2023-04-30T08:24:56.744Z,102064.59
2023-04-30T08:27:23.366Z,102063.63
2023-04-30T08:29:49.912Z,102053.09
2023-04-30T08:32:19.009Z,102062.91
2023-04-30T08:34:46.964Z,102065.56
2023-04-30T08:37:13.438Z,102064.44
2023-04-30T08:39:39.920Z,102063.16
2023-04-30T08:42:09.376Z,102058.22
2023-04-30T08:44:37.240Z,102054.13
2023-04-30T08:47:04.207Z,102047.22
2023-04-30T08:49:31.065Z,102046.50
2023-04-30T08:51:59.798Z,102045.78
2023-04-30T08:54:28.254Z,102044.19
2023-04-30T08:56:55.353Z,102053.31
2023-04-30T08:59:21.864Z,102044.84
2023-04-30T09:01:48.749Z,102042.72
2023-04-30T09:04:16.318Z,102046.88
2023-04-30T09:06:43.552Z,102041.63
2023-04-30T09:09:13.192Z,102034.38
2023-04-30T09:11:39.888Z,102040.50
2023-04-30T09:14:06.390Z,102036.69
2023-04-30T09:16:45.949Z,102038.94
2023-04-30T09:19:23.146Z,102037.50
2023-04-30T09:21:49.709Z,102035.38
2023-04-30T09:24:18.671Z,102031.72
2023-04-30T09:26:46.075Z,102035.16
2023-04-30T09:29:12.581Z,102024.59
2023-04-30T09:31:42.134Z,102031.28
2023-04-30T09:34:08.706Z,102031.03
2023-04-30T09:36:35.239Z,102027.38
2023-04-30T09:39:10.431Z,102028.25
2023-04-30T09:41:39.946Z,102027.84
2023-04-30T09:44:06.464Z,102035.44
2023-04-30T09:46:34.649Z,102028.78
2023-04-30T09:49:02.351Z,102031.56
2023-04-30T09:51:29.239Z,102022.38
2023-04-30T09:53:55.866Z,102022.25
2023-04-30T09:56:23.854Z,102023.97
2023-04-30T09:58:53.578Z,102019.44
2023-04-30T10:01:21.073Z,102019.31
2023-04-30T10:03:49.099Z,102017.34
2023-04-30T10:06:16.555Z,102028.25
2023-04-30T10:08:44.164Z,102017.34
2023-04-30T10:11:14.370Z,102010.13
2023-04-30T10:13:43.400Z,102018.56
2023-04-30T10:16:26.948Z,102023.13
2023-04-30T10:18:57.704Z,102013.25
2023-04-30T10:21:26.720Z,102006.41
2023-04-30T10:23:54.635Z,102004.09
2023-04-30T10:26:22.591Z,102000.06
2023-04-30T10:28:50.448Z,102006.09
2023-04-30T10:31:18.801Z,102002.34
2023-04-30T10:33:54.105Z,101993.16
2023-04-30T10:36:28.057Z,101989.09
2023-04-30T10:38:55.101Z,101990.31
2023-04-30T10:41:21.624Z,101983.59
2023-04-30T10:43:48.113Z,101980.56
2023-04-30T10:46:23.661Z,101983.41
2023-04-30T10:48:52.534Z,101978.72
2023-04-30T10:51:20.304Z,101969.69
2023-04-30T10:53:50.409Z,101959.47
2023-04-30T10:56:29.915Z,101955.75
2023-04-30T10:58:59.100Z,101955.94
2023-04-30T11:01:27.013Z,101958.44
2023-04-30T11:04:05.666Z,101957.25
2023-04-30T11:06:49.835Z,101955.09
2023-04-30T11:09:16.583Z,101947.38
2023-04-30T11:11:44.308Z,101944.31
2023-04-30T11:14:11.822Z,101950.31
2023-04-30T11:16:39.733Z,101951.13
2023-04-30T11:19:07.080Z,101947.56
2023-04-30T11:21:34.033Z,101937.66
2023-04-30T11:24:03.738Z,101942.16
2023-04-30T11:26:30.194Z,101934.72
2023-04-30T11:28:58.022Z,101921.94
2023-04-30T11:31:33.122Z,101931.00
2023-04-30T11:34:02.689Z,101930.63
2023-04-30T11:36:31.546Z,101923.66
2023-04-30T11:38:59.245Z,101922.38
2023-04-30T11:41:25.741Z,101907.19
2023-04-30T11:43:52.230Z,101912.66
2023-04-30T11:46:18.837Z,101919.53
2023-04-30T11:48:46.681Z,101907.41
2023-04-30T11:51:18.398Z,101915.06
2023-04-30T11:53:46.581Z,101908.09
2023-04-30T11:56:13.153Z,101902.81
2023-04-30T11:58:39.697Z,101905.25
2023-04-30T12:01:07.646Z,101901.31
2023-04-30T12:03:40.127Z,101897.06
2023-04-30T12:06:06.690Z,101888.06
2023-04-30T12:08:34.584Z,101890.31
2023-04-30T12:11:01.062Z,101894.94
2023-04-30T12:13:27.549Z,101892.50
2023-04-30T12:15:58.299Z,101886.94
2023-04-30T12:18:24.854Z,101894.00
2023-04-30T12:20:51.788Z,101885.53
2023-04-30T12:23:18.660Z,101887.22
2023-04-30T12:25:46.494Z,101887.41
2023-04-30T12:28:13.198Z,101887.53
2023-04-30T12:30:41.891Z,101868.28
2023-04-30T12:33:10.821Z,101871.63
2023-04-30T12:35:41.850Z,101869.38
2023-04-30T12:38:09.876Z,101868.66
2023-04-30T12:40:36.447Z,101874.41
2023-04-30T12:43:05.717Z,101870.03
2023-04-30T12:45:46.437Z,101866.22
2023-04-30T12:48:14.230Z,101865.41
2023-04-30T12:50:40.899Z,101869.31
2023-04-30T12:53:07.468Z,101857.03
2023-04-30T12:55:34.865Z,101860.13
2023-04-30T12:58:08.370Z,101857.34
2023-04-30T13:00:48.542Z,101851.91
2023-04-30T13:03:16.712Z,101846.28
2023-04-30T13:05:47.917Z,101852.22
2023-04-30T13:08:14.555Z,101846.34
2023-04-30T13:10:41.332Z,101843.47
2023-04-30T13:13:09.215Z,101839.47
2023-04-30T13:15:35.872Z,101830.28
2023-04-30T13:18:02.503Z,101824.97
2023-04-30T13:20:29.161Z,101833.41
2023-04-30T13:22:55.679Z,101831.06
2023-04-30T13:25:22.138Z,101820.13
2023-04-30T13:27:48.663Z,101813.25
2023-04-30T13:30:16.571Z,101815.47
2023-04-30T13:32:43.164Z,101813.06
2023-04-30T13:35:10.384Z,101809.06
2023-04-30T13:37:36.997Z,101819.41
2023-04-30T13:40:04.053Z,101817.03
2023-04-30T13:42:30.615Z,101804.47
2023-04-30T13:44:57.125Z,101808.13
2023-04-30T13:47:25.099Z,101807.75
2023-04-30T13:49:51.650Z,101808.69
2023-04-30T13:52:18.104Z,101799.16
2023-04-30T13:54:44.587Z,101793.75
2023-04-30T13:57:11.059Z,101791.06
2023-04-30T13:59:37.588Z,101786.09
2023-04-30T14:02:04.191Z,101784.91
2023-04-30T14:04:32.006Z,101784.13
2023-04-30T14:06:58.642Z,101792.84
2023-04-30T14:09:25.279Z,101788.78
2023-04-30T14:11:51.772Z,101789.09
2023-04-30T14:14:18.302Z,101774.91
2023-04-30T14:16:44.920Z,101780.81
2023-04-30T14:19:11.530Z,101779.31
2023-04-30T14:21:39.347Z,101773.41
2023-04-30T14:24:06.207Z,101775.84
2023-04-30T14:26:32.793Z,101768.66
2023-04-30T14:28:59.310Z,101772.44
2023-04-30T14:31:25.925Z,101764.47
2023-04-30T14:33:52.451Z,101761.19
2023-04-30T14:36:18.962Z,101765.53
2023-04-30T14:38:46.924Z,101759.78
2023-04-30T14:41:13.435Z,101759.41
2023-04-30T14:43:40.203Z,101760.25
2023-04-30T14:46:06.824Z,101758.59
2023-04-30T14:48:33.397Z,101758.13
2023-04-30T14:50:59.931Z,101750.50
2023-04-30T14:53:26.531Z,101754.47
2023-04-30T14:55:54.428Z,101755.31
2023-04-30T14:58:20.975Z,101743.50
2023-04-30T15:00:47.525Z,101745.34
2023-04-30T15:03:14.084Z,101739.63
2023-04-30T15:05:40.859Z,101743.47
2023-04-30T15:08:07.377Z,101734.00
2023-04-30T15:10:33.882Z,101727.31
2023-04-30T15:13:02.505Z,101722.38
2023-04-30T15:15:29.170Z,101728.88
2023-04-30T15:17:56.896Z,101724.31
2023-04-30T15:20:23.623Z,101721.25
2023-04-30T15:22:50.211Z,101714.47
2023-04-30T15:25:16.942Z,101718.38
2023-04-30T15:27:43.489Z,101712.78
2023-04-30T15:30:11.703Z,101711.63
2023-04-30T15:32:38.268Z,101710.28
2023-04-30T15:35:05.712Z,101704.03
2023-04-30T15:37:32.333Z,101700.69
2023-04-30T15:39:58.867Z,101705.06
2023-04-30T15:42:25.350Z,101700.94
2023-04-30T15:44:51.867Z,101703.00
2023-04-30T15:47:21.233Z,101698.84
2023-04-30T15:49:48.947Z,101696.53
2023-04-30T15:52:15.498Z,101698.69
2023-04-30T15:54:41.979Z,101691.44
2023-04-30T15:57:08.663Z,101685.41
2023-04-30T15:59:35.143Z,101681.44
2023-04-30T16:02:01.747Z,101678.34
2023-04-30T16:04:29.674Z,101674.09
2023-04-30T16:06:56.477Z,101684.03
2023-04-30T16:09:23.225Z,101681.66
2023-04-30T16:11:49.759Z,101680.31
2023-04-30T16:14:16.568Z,101681.25
2023-04-30T16:16:43.138Z,101674.56
2023-04-30T16:19:09.762Z,101670.75
2023-04-30T16:21:37.946Z,101683.19
2023-04-30T16:24:04.853Z,101678.41
2023-04-30T16:26:31.370Z,101677.19
2023-04-30T16:28:57.910Z,101679.41
2023-04-30T16:31:24.438Z,101671.06
2023-04-30T16:33:51.013Z,101679.03
2023-04-30T16:36:17.532Z,101665.59
2023-04-30T16:38:45.341Z,101675.56
2023-04-30T16:41:12.572Z,101668.00
2023-04-30T16:43:39.201Z,101666.63
2023-04-30T16:46:05.871Z,101671.81
2023-04-30T16:48:32.440Z,101665.00
2023-04-30T16:50:58.992Z,101661.59
2023-04-30T16:53:25.724Z,101666.19
2023-04-30T16:55:53.668Z,101654.97
2023-04-30T16:58:20.182Z,101658.75
2023-04-30T17:00:46.742Z,101651.97
2023-04-30T17:03:13.356Z,101643.19
2023-04-30T17:05:39.929Z,101641.78
2023-04-30T17:08:06.449Z,101641.25
2023-04-30T17:10:32.981Z,101637.63
2023-04-30T17:13:00.818Z,101636.81
2023-04-30T17:15:27.456Z,101633.47
2023-04-30T17:17:53.992Z,101636.97
2023-04-30T17:20:20.514Z,101634.53
2023-04-30T17:22:47.004Z,101631.13
2023-04-30T17:25:14.010Z,101635.13
2023-04-30T17:27:40.526Z,101627.25
2023-04-30T17:30:09.321Z,101628.81
2023-04-30T17:32:35.947Z,101630.09
2023-04-30T17:35:02.506Z,101623.44
2023-04-30T17:37:29.075Z,101626.13
2023-04-30T17:39:55.829Z,101633.88
2023-04-30T17:42:22.607Z,101632.72
2023-04-30T17:44:49.209Z,101624.63
2023-04-30T17:47:17.025Z,101611.78
2023-04-30T17:49:43.499Z,101619.03
2023-04-30T17:52:10.187Z,101623.75
2023-04-30T17:54:36.819Z,101624.94
2023-04-30T17:57:03.309Z,101621.53
2023-04-30T17:59:29.866Z,101631.19
2023-04-30T18:01:56.537Z,101622.75
2023-04-30T18:04:25.288Z,101617.22
2023-04-30T18:06:51.807Z,101613.31
2023-04-30T18:09:18.368Z,101614.91
2023-04-30T18:11:44.887Z,101613.31
2023-04-30T18:14:11.510Z,101608.22
2023-04-30T18:16:38.050Z,101612.78
2023-04-30T18:19:05.059Z,101607.84
2023-04-30T18:21:32.897Z,101607.25
2023-04-30T18:23:59.518Z,101609.00
2023-04-30T18:26:26.009Z,101607.22
2023-04-30T18:28:52.511Z,101608.16
2023-04-30T18:31:19.144Z,101611.22
2023-04-30T18:33:45.693Z,101599.75
2023-04-30T18:36:12.201Z,101604.28
2023-04-30T18:38:40.094Z,101604.34
2023-04-30T18:41:06.641Z,101598.00
2023-04-30T18:43:33.318Z,101598.03
2023-04-30T18:45:59.874Z,101593.53
2023-04-30T18:48:26.530Z,101600.63
2023-04-30T18:50:53.052Z,101591.78
2023-04-30T18:53:19.663Z,101599.34
2023-04-30T18:55:47.510Z,101593.34
2023-04-30T18:58:14.022Z,101592.16
2023-04-30T19:00:41.480Z,101598.50
2023-04-30T19:03:08.133Z,101594.66
2023-04-30T19:05:35.038Z,101603.53
2023-04-30T19:08:01.675Z,101599.88
2023-04-30T19:10:28.263Z,101606.41
2023-04-30T19:12:56.156Z,101602.53
2023-04-30T19:15:22.656Z,101609.56
2023-04-30T19:17:49.113Z,101614.59
2023-04-30T19:20:15.739Z,101613.25
2023-04-30T19:22:42.337Z,101611.75
2023-04-30T19:25:09.985Z,101608.38
2023-04-30T19:27:36.490Z,101616.09
2023-04-30T19:30:05.430Z,101610.06
2023-04-30T19:32:31.947Z,101612.91
2023-04-30T19:34:58.559Z,101612.38
2023-04-30T19:37:25.051Z,101618.41
2023-04-30T19:39:51.525Z,101615.91
2023-04-30T19:42:18.021Z,101616.22
2023-04-30T19:44:44.523Z,101614.38
2023-04-30T19:47:12.299Z,101614.53
2023-04-30T19:49:38.794Z,101613.03
2023-04-30T19:52:05.273Z,101616.22
2023-04-30T19:54:31.780Z,101611.50
2023-04-30T19:56:58.280Z,101609.31
2023-04-30T19:59:24.837Z,101608.81
2023-04-30T20:01:51.403Z,101610.81
2023-04-30T20:04:19.317Z,101615.81
2023-04-30T20:06:45.848Z,101617.13
2023-04-30T20:09:12.375Z,101611.72
2023-04-30T20:11:38.829Z,101614.03
2023-04-30T20:14:05.288Z,101607.19
2023-04-30T20:16:32.367Z,101604.00
2023-04-30T20:18:58.952Z,101603.63
2023-04-30T20:21:26.818Z,101606.50
2023-04-30T20:23:53.293Z,101603.97
2023-04-30T20:26:19.778Z,101606.94
2023-04-30T20:28:46.291Z,101603.44
2023-04-30T20:31:12.961Z,101607.94
2023-04-30T20:33:39.472Z,101607.28
2023-04-30T20:36:06.008Z,101606.94
2023-04-30T20:38:33.934Z,101603.25
2023-04-30T20:41:00.454Z,101596.25
2023-04-30T20:43:26.980Z,101594.56
2023-04-30T20:45:56.103Z,101604.72
2023-04-30T20:48:22.594Z,101600.69
2023-04-30T20:50:49.090Z,101602.00
2023-04-30T20:53:15.582Z,101592.63
2023-04-30T20:55:43.423Z,101600.97
2023-04-30T20:58:09.904Z,101600.31
2023-04-30T21:00:36.438Z,101597.09
2023-04-30T21:03:03.065Z,101596.25
2023-04-30T21:05:29.714Z,101591.03
2023-04-30T21:07:56.199Z,101587.22
2023-04-30T21:10:22.702Z,101588.38
2023-04-30T21:12:50.558Z,101589.34
2023-04-30T21:15:17.189Z,101589.66
2023-04-30T21:17:43.755Z,101594.16
2023-04-30T21:20:11.241Z,101584.66
2023-04-30T21:22:39.189Z,101582.97
2023-04-30T21:25:06.858Z,101575.28
2023-04-30T21:27:33.424Z,101572.91
2023-04-30T21:30:01.242Z,101567.56
2023-04-30T21:32:27.773Z,101571.56
2023-04-30T21:34:54.298Z,101566.25
2023-04-30T21:37:21.066Z,101563.03
2023-04-30T21:39:47.612Z,101566.00
2023-04-30T21:42:14.136Z,101568.84
2023-04-30T21:44:40.623Z,101566.31
2023-04-30T21:47:08.501Z,101565.47
2023-04-30T21:49:35.022Z,101562.66
2023-04-30T21:52:01.596Z,101559.47
2023-04-30T21:54:28.141Z,101553.16
2023-04-30T21:56:54.593Z,101558.50
2023-04-30T21:59:21.046Z,101554.16
2023-04-30T22:01:47.603Z,101544.78
2023-04-30T22:04:15.651Z,101544.91
2023-04-30T22:06:42.287Z,101541.41
2023-04-30T22:09:09.422Z,101544.91
2023-04-30T22:11:35.912Z,101546.75
2023-04-30T22:14:02.446Z,101539.88
2023-04-30T22:16:29.112Z,101542.56
2023-04-30T22:18:58.078Z,101540.91
2023-04-30T22:21:26.852Z,101536.56
2023-04-30T22:23:53.389Z,101533.22
2023-04-30T22:26:19.909Z,101524.38
2023-04-30T22:28:46.414Z,101531.53
2023-04-30T22:31:13.027Z,101524.66
2023-04-30T22:33:39.705Z,101513.47
2023-04-30T22:36:06.597Z,101513.47
2023-04-30T22:38:34.519Z,101516.28
2023-04-30T22:41:01.982Z,101515.44
2023-04-30T22:43:28.723Z,101511.25
2023-04-30T22:45:55.534Z,101515.59
2023-04-30T22:48:22.220Z,101512.09
2023-04-30T22:50:48.911Z,101516.59
2023-04-30T22:53:15.446Z,101512.94
2023-04-30T22:55:43.643Z,101517.44
2023-04-30T22:58:10.139Z,101510.25
2023-04-30T23:00:36.696Z,101515.75
2023-04-30T23:03:03.428Z,101512.94
2023-04-30T23:05:29.923Z,101507.59
2023-04-30T23:07:56.432Z,101502.09
2023-04-30T23:10:22.982Z,101497.75
2023-04-30T23:12:50.900Z,101500.44
2023-04-30T23:15:17.614Z,101500.28
2023-04-30T23:17:44.213Z,101500.03
2023-04-30T23:20:11.064Z,101493.19
2023-04-30T23:22:37.593Z,101495.00
2023-04-30T23:25:04.493Z,101498.69
2023-04-30T23:27:30.984Z,101497.19
2023-04-30T23:29:58.824Z,101486.66
2023-04-30T23:32:25.393Z,101486.81
2023-04-30T23:34:51.899Z,101486.13
2023-04-30T23:37:18.372Z,101478.47
2023-04-30T23:39:44.869Z,101489.13
2023-04-30T23:42:11.347Z,101478.47
2023-04-30T23:44:37.846Z,101470.91
2023-04-30T23:47:05.664Z,101470.22
2023-04-30T23:49:32.210Z,101469.38
2023-04-30T23:51:58.694Z,101465.19
2023-04-30T23:54:25.198Z,101461.03
2023-04-30T23:56:51.633Z,101458.66
2023-04-30T23:59:18.132Z,101451.66
